Appomattox, Virginia
Current Conditions -  °F | °C
As of 8:15 PM on Sunday 23 Nov 2014 (Local Time) from K0V4 Reporting Station
Overcast Overcast  
Wind Chill:   Ceiling: 600
Heat Index: 10°   Visibility: 4mi
Dew Point: 10°   Wind: 5mph
Humidity: 100%   Direction: 90°E
Pressure: 29.89"   Gusts: NA
Location:  37.36°N, 78.83°W
Report Text: K0V4 240115Z AUTO 09004KT 4SM OVC006 10/10 A2989 RMK AO1 P0003 T00980098
Loading
Personal Weather Stations






























Interactive Weather Map New forecast layout! Learn more

10-Day Weather Forecast

Advertisements
Track Severe Weather on mobile